createdAt,value
2018-09-06T00:00:37.473Z,16.60
2018-09-06T00:03:06.793Z,16.60
2018-09-06T00:05:36.385Z,16.60
2018-09-06T00:08:06.019Z,16.60
2018-09-06T00:10:35.358Z,16.60
2018-09-06T00:13:04.765Z,16.60
2018-09-06T00:15:34.151Z,16.50
2018-09-06T00:18:03.496Z,16.50
2018-09-06T00:20:32.896Z,16.50
2018-09-06T00:23:02.388Z,16.50
2018-09-06T00:25:31.794Z,16.50
2018-09-06T00:28:01.124Z,16.40
2018-09-06T00:30:30.483Z,16.40
2018-09-06T00:32:59.788Z,16.40
2018-09-06T00:35:29.028Z,16.30
2018-09-06T00:37:58.412Z,16.30
2018-09-06T00:40:27.869Z,16.30
2018-09-06T00:42:57.191Z,16.30
2018-09-06T00:45:26.635Z,16.30
2018-09-06T00:47:55.957Z,16.20
2018-09-06T00:50:25.271Z,16.20
2018-09-06T00:52:54.635Z,16.10
2018-09-06T00:55:24.059Z,16.00
2018-09-06T00:57:53.338Z,15.90
2018-09-06T01:00:31.870Z,15.80
2018-09-06T01:03:01.171Z,15.90
2018-09-06T01:05:31.067Z,15.90
2018-09-06T01:08:00.441Z,15.80
2018-09-06T01:10:29.786Z,15.70
2018-09-06T01:12:59.098Z,15.60
2018-09-06T01:15:28.410Z,15.50
2018-09-06T01:17:57.802Z,15.50
2018-09-06T01:20:27.182Z,15.50
2018-09-06T01:22:56.505Z,15.30
2018-09-06T01:25:25.875Z,15.20
2018-09-06T01:27:55.121Z,15.10
2018-09-06T01:30:24.408Z,15.20
2018-09-06T01:32:53.654Z,15.20
2018-09-06T01:35:22.988Z,15.20
2018-09-06T01:37:52.307Z,15.20
2018-09-06T01:40:21.616Z,15.20
2018-09-06T01:42:50.922Z,15.20
2018-09-06T01:45:20.275Z,15.20
2018-09-06T01:47:49.630Z,15.20
2018-09-06T01:50:18.863Z,15.20
2018-09-06T01:52:48.223Z,15.10
2018-09-06T01:55:17.530Z,15.10
2018-09-06T01:57:46.841Z,15.10
2018-09-06T02:00:16.186Z,15.10
2018-09-06T02:02:45.470Z,15.10
2018-09-06T02:05:18.823Z,15.10
2018-09-06T02:07:48.122Z,15.10
2018-09-06T02:10:17.454Z,15.00
2018-09-06T02:12:46.744Z,15.00
2018-09-06T02:15:16.007Z,14.90
2018-09-06T02:17:45.295Z,15.00
2018-09-06T02:20:14.638Z,14.90
2018-09-06T02:22:44.018Z,14.90
2018-09-06T02:25:13.317Z,14.90
2018-09-06T02:27:42.563Z,14.90
2018-09-06T02:30:11.974Z,15.00
2018-09-06T02:32:41.314Z,14.90
2018-09-06T02:35:10.641Z,14.80
2018-09-06T02:37:39.975Z,14.80
2018-09-06T02:40:13.393Z,14.70
2018-09-06T02:42:42.874Z,14.70
2018-09-06T02:45:12.295Z,14.70
2018-09-06T02:47:46.708Z,14.70
2018-09-06T02:50:21.184Z,14.70
2018-09-06T02:52:50.574Z,14.70
2018-09-06T02:55:19.903Z,14.60
2018-09-06T02:57:49.533Z,14.60
2018-09-06T03:00:22.883Z,14.60
2018-09-06T03:02:52.678Z,14.60
2018-09-06T03:05:21.942Z,14.70
2018-09-06T03:07:51.419Z,14.70
2018-09-06T03:10:21.403Z,14.70
2018-09-06T03:12:51.043Z,14.70
2018-09-06T03:15:20.565Z,14.70
2018-09-06T03:17:49.871Z,14.60
2018-09-06T03:20:19.204Z,14.70
2018-09-06T03:22:48.603Z,14.70
2018-09-06T03:25:17.907Z,14.60
2018-09-06T03:27:47.198Z,14.60
2018-09-06T03:30:16.483Z,14.60
2018-09-06T03:32:45.787Z,14.50
2018-09-06T03:35:15.094Z,14.50
2018-09-06T03:37:44.511Z,14.50
2018-09-06T03:40:14.056Z,14.50
2018-09-06T03:42:43.811Z,14.50
2018-09-06T03:45:13.175Z,14.50
2018-09-06T03:47:45.722Z,14.50
2018-09-06T03:50:15.090Z,14.50
2018-09-06T03:52:44.474Z,14.40
2018-09-06T03:55:14.145Z,14.40
2018-09-06T03:57:43.550Z,14.40
2018-09-06T04:00:12.897Z,14.40
2018-09-06T04:02:42.322Z,14.40
2018-09-06T04:05:11.631Z,14.40
2018-09-06T04:07:40.927Z,14.40
2018-09-06T04:10:10.336Z,14.40
2018-09-06T04:12:39.560Z,14.40
2018-09-06T04:15:08.906Z,14.40
2018-09-06T04:17:38.263Z,14.40
2018-09-06T04:20:07.702Z,14.30
2018-09-06T04:22:41.408Z,14.30
2018-09-06T04:25:10.778Z,14.30
2018-09-06T04:27:40.147Z,14.20
2018-09-06T04:30:09.480Z,14.20
2018-09-06T04:32:38.815Z,14.20
2018-09-06T04:35:08.127Z,14.10
2018-09-06T04:37:37.446Z,14.10
2018-09-06T04:40:06.823Z,14.10
2018-09-06T04:42:36.186Z,14.10
2018-09-06T04:45:05.642Z,14.10
2018-09-06T04:47:34.883Z,14.10
2018-09-06T04:50:04.242Z,14.00
2018-09-06T04:52:33.494Z,14.00
2018-09-06T04:55:02.793Z,14.10
2018-09-06T04:57:32.131Z,14.10
2018-09-06T05:00:01.418Z,14.00
2018-09-06T05:02:30.746Z,14.00
2018-09-06T05:05:00.051Z,14.00
2018-09-06T05:07:29.355Z,14.10
2018-09-06T05:09:58.626Z,14.10
2018-09-06T05:12:27.949Z,14.10
2018-09-06T05:14:57.292Z,14.10
2018-09-06T05:17:26.598Z,14.10
2018-09-06T05:19:55.918Z,14.10
2018-09-06T05:22:25.234Z,14.10
2018-09-06T05:24:54.688Z,14.20
2018-09-06T05:27:23.991Z,14.20
2018-09-06T05:29:53.252Z,14.20
2018-09-06T05:32:22.565Z,14.20
2018-09-06T05:34:51.902Z,14.30
2018-09-06T05:37:21.184Z,14.20
2018-09-06T05:39:50.472Z,14.20
2018-09-06T05:42:19.774Z,14.20
2018-09-06T05:44:49.047Z,14.30
2018-09-06T05:47:18.354Z,14.20
2018-09-06T05:49:47.715Z,14.20
2018-09-06T05:52:16.985Z,14.20
2018-09-06T05:54:46.255Z,14.20
2018-09-06T05:57:15.547Z,14.30
2018-09-06T05:59:44.979Z,14.30
2018-09-06T06:02:14.175Z,14.40
2018-09-06T06:04:43.510Z,14.50
2018-09-06T06:07:12.837Z,14.50
2018-09-06T06:09:42.074Z,14.60
2018-09-06T06:12:16.925Z,14.70
2018-09-06T06:14:46.262Z,14.80
2018-09-06T06:17:15.668Z,14.90
2018-09-06T06:19:44.902Z,15.00
2018-09-06T06:22:14.249Z,15.10
2018-09-06T06:24:43.556Z,15.20
2018-09-06T06:27:12.944Z,15.30
2018-09-06T06:29:42.268Z,15.40
2018-09-06T06:32:11.717Z,15.50
2018-09-06T06:34:41.147Z,15.60
2018-09-06T06:37:10.461Z,15.70
2018-09-06T06:39:39.793Z,15.90
2018-09-06T06:42:09.002Z,16.00
2018-09-06T06:44:38.208Z,16.10
2018-09-06T06:47:07.618Z,16.20
2018-09-06T06:49:36.904Z,16.40
2018-09-06T06:52:06.336Z,16.60
2018-09-06T06:54:35.598Z,16.80
2018-09-06T06:57:04.867Z,17.00
2018-09-06T06:59:34.159Z,17.20
2018-09-06T07:02:03.482Z,17.40
2018-09-06T07:04:32.782Z,17.60
2018-09-06T07:07:02.195Z,17.80
2018-09-06T07:09:31.422Z,18.00
2018-09-06T07:12:00.783Z,18.30
2018-09-06T07:14:30.198Z,18.50
2018-09-06T07:16:59.842Z,18.70
2018-09-06T07:19:29.105Z,18.90
2018-09-06T07:21:58.362Z,19.10
2018-09-06T07:24:27.690Z,19.20
2018-09-06T07:26:56.985Z,19.30
2018-09-06T07:29:26.279Z,19.50
2018-09-06T07:31:55.547Z,19.50
2018-09-06T07:34:24.907Z,19.60
2018-09-06T07:36:54.205Z,19.70
2018-09-06T07:39:23.492Z,19.80
2018-09-06T07:41:52.804Z,19.80
2018-09-06T07:44:22.141Z,19.90
2018-09-06T07:46:51.376Z,20.00
2018-09-06T07:49:20.639Z,20.20
2018-09-06T07:51:49.959Z,20.40
2018-09-06T07:54:19.214Z,20.50
2018-09-06T07:56:48.566Z,20.70
2018-09-06T07:59:17.831Z,20.80
2018-09-06T08:01:47.095Z,20.90
2018-09-06T08:04:16.421Z,21.10
2018-09-06T08:06:45.874Z,21.10
2018-09-06T08:09:15.205Z,21.40
2018-09-06T08:11:44.501Z,21.70
2018-09-06T08:14:13.915Z,22.00
2018-09-06T08:16:43.450Z,22.20
2018-09-06T08:19:12.892Z,22.40
2018-09-06T08:21:42.119Z,22.50
2018-09-06T08:24:11.485Z,22.60
2018-09-06T08:26:40.792Z,22.90
2018-09-06T08:29:10.139Z,23.20
2018-09-06T08:31:39.414Z,23.40
2018-09-06T08:34:08.751Z,23.50
2018-09-06T08:36:37.939Z,23.50
2018-09-06T08:39:10.415Z,23.60
2018-09-06T08:41:40.517Z,23.60
2018-09-06T08:44:09.858Z,24.00
2018-09-06T08:46:39.114Z,24.30
2018-09-06T08:49:08.419Z,24.50
2018-09-06T08:51:37.752Z,24.50
2018-09-06T08:54:07.308Z,24.50
2018-09-06T08:56:36.743Z,24.60
2018-09-06T08:59:06.077Z,24.80
2018-09-06T09:01:42.682Z,25.10
2018-09-06T09:04:12.825Z,25.20
2018-09-06T09:06:42.151Z,25.20
2018-09-06T09:09:15.041Z,25.40
2018-09-06T09:11:44.286Z,25.60
2018-09-06T09:14:13.689Z,25.70
2018-09-06T09:16:43.030Z,25.80
2018-09-06T09:19:12.318Z,26.00
2018-09-06T09:21:41.816Z,26.30
2018-09-06T09:24:10.955Z,26.40
2018-09-06T09:26:40.282Z,26.60
2018-09-06T09:29:09.620Z,26.80
2018-09-06T09:31:38.978Z,26.90
2018-09-06T09:34:08.384Z,26.90
2018-09-06T09:36:37.701Z,27.10
2018-09-06T09:41:36.490Z,27.30
2018-09-06T09:44:05.718Z,27.40
2018-09-06T09:49:03.262Z,27.80
2018-09-06T09:51:32.563Z,27.90
2018-09-06T09:54:01.925Z,27.90
2018-09-06T09:56:31.303Z,28.00
2018-09-06T09:59:00.599Z,28.10
2018-09-06T10:01:34.934Z,28.10
2018-09-06T10:04:09.314Z,28.40
2018-09-06T10:06:44.618Z,28.70
2018-09-06T10:09:24.375Z,28.80
2018-09-06T10:11:53.730Z,28.90
2018-09-06T10:14:22.992Z,29.30
2018-09-06T10:16:52.306Z,29.60
2018-09-06T10:19:21.687Z,29.80
2018-09-06T10:21:50.876Z,30.10
2018-09-06T10:24:20.235Z,30.30
2018-09-06T10:26:49.662Z,30.40
2018-09-06T10:29:19.086Z,30.00
2018-09-06T10:31:48.491Z,30.30
2018-09-06T10:34:17.883Z,30.00
2018-09-06T10:36:48.208Z,29.90
2018-09-06T10:39:17.565Z,29.90
2018-09-06T10:41:46.959Z,29.70
2018-09-06T10:44:16.323Z,29.40
2018-09-06T10:46:45.782Z,29.50
2018-09-06T10:49:15.059Z,29.40
2018-09-06T10:51:44.336Z,29.30
2018-09-06T10:54:13.699Z,29.10
2018-09-06T10:56:43.368Z,29.10
2018-09-06T10:59:12.803Z,29.00
2018-09-06T11:01:42.249Z,28.80
2018-09-06T11:04:11.643Z,28.80
2018-09-06T11:06:41.023Z,28.70
2018-09-06T11:09:10.366Z,28.60
2018-09-06T11:11:39.687Z,28.50
2018-09-06T11:14:09.207Z,28.40
2018-09-06T11:16:38.598Z,28.00
2018-09-06T11:19:07.942Z,27.80
2018-09-06T11:21:37.570Z,27.60
2018-09-06T11:24:06.767Z,26.70
2018-09-06T11:26:36.043Z,26.10
2018-09-06T11:29:05.355Z,24.90
2018-09-06T11:31:34.749Z,24.50
2018-09-06T11:34:04.071Z,24.50
2018-09-06T11:36:33.335Z,24.40
2018-09-06T11:39:02.762Z,24.50
2018-09-06T11:41:32.032Z,24.30
2018-09-06T11:44:01.339Z,23.80
2018-09-06T11:46:30.622Z,23.80
2018-09-06T11:48:59.959Z,24.10
2018-09-06T11:51:29.327Z,24.60
2018-09-06T11:53:58.670Z,24.40
2018-09-06T11:56:27.958Z,24.50
2018-09-06T11:58:57.208Z,24.50
2018-09-06T12:01:26.898Z,25.00
2018-09-06T12:03:56.383Z,25.60
2018-09-06T12:06:25.661Z,26.00
2018-09-06T12:08:55.036Z,26.10
2018-09-06T12:11:24.369Z,26.40
2018-09-06T12:13:53.765Z,26.60
2018-09-06T12:16:22.998Z,26.90
2018-09-06T12:18:52.491Z,27.30
2018-09-06T12:21:21.879Z,26.90
2018-09-06T12:23:51.323Z,26.90
2018-09-06T12:26:20.646Z,27.00
2018-09-06T12:28:50.066Z,27.20
2018-09-06T12:31:19.509Z,27.60
2018-09-06T12:33:48.999Z,27.70
2018-09-06T12:36:18.484Z,27.90
2018-09-06T12:38:47.877Z,28.30
2018-09-06T12:41:17.251Z,28.50
2018-09-06T12:43:46.570Z,28.60
2018-09-06T12:46:15.826Z,28.40
2018-09-06T12:48:45.276Z,28.40
2018-09-06T12:51:14.578Z,28.10
2018-09-06T12:53:43.906Z,28.00
2018-09-06T12:56:13.311Z,28.00
2018-09-06T12:58:42.556Z,27.90
2018-09-06T13:01:13.122Z,27.70
2018-09-06T13:03:42.670Z,27.30
2018-09-06T13:06:11.858Z,27.30
2018-09-06T13:08:41.000Z,27.20
2018-09-06T13:11:10.390Z,27.40
2018-09-06T13:13:39.789Z,27.90
2018-09-06T13:16:09.057Z,28.40
2018-09-06T13:18:38.367Z,28.50
2018-09-06T13:21:07.752Z,28.40
2018-09-06T13:23:37.023Z,28.90
2018-09-06T13:26:06.407Z,29.40
2018-09-06T13:28:35.798Z,29.40
2018-09-06T13:31:05.130Z,29.60
2018-09-06T13:33:34.334Z,29.50
2018-09-06T13:36:03.706Z,29.80
2018-09-06T13:38:33.007Z,29.80
2018-09-06T13:41:02.303Z,29.90
2018-09-06T13:43:31.603Z,29.80
2018-09-06T13:46:00.947Z,29.90
2018-09-06T13:48:30.222Z,29.90
2018-09-06T13:50:59.495Z,29.70
2018-09-06T13:53:28.813Z,29.60
2018-09-06T13:55:58.184Z,29.50
2018-09-06T13:58:27.750Z,29.50
2018-09-06T14:00:57.114Z,29.40
2018-09-06T14:03:26.303Z,29.50
2018-09-06T14:05:55.700Z,29.90
2018-09-06T14:08:24.870Z,30.30
2018-09-06T14:10:54.222Z,30.40
2018-09-06T14:13:23.519Z,30.50
2018-09-06T14:15:52.812Z,30.50
2018-09-06T14:18:22.205Z,30.80
2018-09-06T14:20:51.690Z,30.60
2018-09-06T14:23:21.046Z,30.80
2018-09-06T14:25:50.379Z,30.80
2018-09-06T14:28:19.711Z,30.60
2018-09-06T14:30:48.918Z,30.50
2018-09-06T14:33:25.795Z,30.30
2018-09-06T14:35:55.026Z,30.30
2018-09-06T14:38:24.461Z,30.20
2018-09-06T14:40:53.828Z,30.20
2018-09-06T14:43:23.161Z,30.20
2018-09-06T14:45:52.435Z,30.10
2018-09-06T14:48:21.740Z,30.00
2018-09-06T14:50:51.071Z,30.00
2018-09-06T14:53:20.357Z,29.80
2018-09-06T14:55:49.675Z,29.70
2018-09-06T14:58:18.957Z,29.40
2018-09-06T15:00:48.260Z,29.20
2018-09-06T15:03:17.621Z,29.10
2018-09-06T15:05:46.996Z,29.00
2018-09-06T15:08:16.298Z,28.90
2018-09-06T15:10:45.535Z,28.90
2018-09-06T15:13:14.815Z,28.80
2018-09-06T15:15:44.124Z,28.80
2018-09-06T15:18:13.412Z,28.60
2018-09-06T15:20:42.706Z,28.40
2018-09-06T15:23:12.087Z,28.30
2018-09-06T15:25:41.390Z,28.40
2018-09-06T15:28:10.687Z,28.30
2018-09-06T15:30:39.934Z,28.20
2018-09-06T15:33:10.989Z,28.20
2018-09-06T15:35:40.238Z,28.20
2018-09-06T15:38:09.703Z,28.10
2018-09-06T15:40:39.024Z,28.00
2018-09-06T15:43:08.359Z,28.00
2018-09-06T15:45:37.630Z,28.00
2018-09-06T15:48:06.921Z,27.80
2018-09-06T15:50:36.238Z,27.70
2018-09-06T15:53:05.575Z,27.60
2018-09-06T15:55:34.819Z,27.50
2018-09-06T15:58:04.162Z,27.50
2018-09-06T16:00:33.440Z,27.30
2018-09-06T16:03:20.235Z,27.20
2018-09-06T16:05:49.487Z,27.20
2018-09-06T16:08:18.808Z,27.20
2018-09-06T16:10:48.086Z,27.10
2018-09-06T16:13:17.638Z,26.90
2018-09-06T16:15:46.890Z,26.90
2018-09-06T16:18:16.346Z,26.70
2018-09-06T16:20:45.623Z,26.50
2018-09-06T16:23:14.933Z,26.20
2018-09-06T16:25:44.199Z,26.10
2018-09-06T16:28:13.495Z,25.90
2018-09-06T16:30:42.794Z,25.70
2018-09-06T16:33:12.112Z,25.50
2018-09-06T16:35:41.477Z,25.60
2018-09-06T16:38:10.791Z,25.50
2018-09-06T16:40:40.083Z,25.30
2018-09-06T16:43:09.437Z,25.20
2018-09-06T16:45:38.676Z,25.20
2018-09-06T16:48:08.054Z,25.10
2018-09-06T16:50:37.395Z,25.00
2018-09-06T16:53:07.052Z,24.70
2018-09-06T16:55:36.433Z,24.60
2018-09-06T16:58:05.848Z,24.50
2018-09-06T17:00:35.179Z,24.50
2018-09-06T17:03:05.047Z,24.30
2018-09-06T17:05:34.439Z,24.10
2018-09-06T17:08:05.809Z,23.80
2018-09-06T17:10:35.131Z,23.70
2018-09-06T17:13:04.478Z,23.80
2018-09-06T17:15:33.805Z,23.80
2018-09-06T17:18:03.166Z,23.70
2018-09-06T17:21:35.765Z,23.50
2018-09-06T17:24:05.091Z,23.50
2018-09-06T17:26:34.379Z,23.20
2018-09-06T17:29:03.742Z,23.10
2018-09-06T17:31:33.008Z,23.00
2018-09-06T17:34:02.350Z,23.00
2018-09-06T17:36:31.654Z,23.00
2018-09-06T17:39:01.094Z,22.90
2018-09-06T17:41:30.424Z,22.90
2018-09-06T17:43:59.759Z,23.00
2018-09-06T17:46:29.058Z,23.00
2018-09-06T17:48:58.447Z,22.80
2018-09-06T17:51:27.780Z,22.80
2018-09-06T17:53:57.139Z,22.70
2018-09-06T17:56:26.470Z,22.50
2018-09-06T17:58:55.759Z,22.50
2018-09-06T18:01:39.848Z,22.50
2018-09-06T18:04:09.318Z,22.50
2018-09-06T18:06:38.678Z,22.50
2018-09-06T18:09:09.622Z,22.50
2018-09-06T18:11:39.167Z,22.40
2018-09-06T18:14:08.578Z,22.30
2018-09-06T18:16:37.951Z,22.20
2018-09-06T18:19:07.272Z,22.10
2018-09-06T18:21:46.853Z,22.10
2018-09-06T18:24:16.266Z,22.00
2018-09-06T18:26:45.625Z,22.00
2018-09-06T18:29:14.864Z,22.00
2018-09-06T18:31:44.318Z,21.90
2018-09-06T18:34:13.606Z,21.80
2018-09-06T18:36:42.949Z,21.80
2018-09-06T18:39:15.546Z,21.70
2018-09-06T18:41:44.870Z,21.70
2018-09-06T18:44:15.147Z,21.70
2018-09-06T18:46:44.562Z,21.60
2018-09-06T18:49:14.206Z,21.50
2018-09-06T18:51:43.714Z,21.50
2018-09-06T18:54:13.433Z,21.40
2018-09-06T18:56:44.102Z,21.40
2018-09-06T18:59:13.430Z,21.40
2018-09-06T19:01:49.051Z,21.20
2018-09-06T19:04:18.607Z,21.10
2018-09-06T19:06:48.047Z,21.00
2018-09-06T19:09:17.544Z,21.00
2018-09-06T19:11:46.972Z,21.00
2018-09-06T19:14:16.305Z,21.00
2018-09-06T19:16:45.650Z,20.90
2018-09-06T19:19:15.030Z,20.90
2018-09-06T19:21:44.619Z,20.90
2018-09-06T19:24:13.987Z,20.90
2018-09-06T19:26:43.403Z,20.90
2018-09-06T19:29:12.678Z,20.90
2018-09-06T19:31:42.214Z,20.90
2018-09-06T19:34:11.680Z,20.90
2018-09-06T19:36:41.179Z,20.90
2018-09-06T19:39:12.423Z,20.80
2018-09-06T19:41:41.811Z,20.80
2018-09-06T19:44:11.489Z,20.70
2018-09-06T19:46:41.095Z,20.70
2018-09-06T19:49:10.511Z,20.70
2018-09-06T19:51:40.025Z,20.70
2018-09-06T19:54:09.602Z,20.60
2018-09-06T19:56:39.506Z,20.60
2018-09-06T19:59:09.080Z,20.60
2018-09-06T20:01:38.588Z,20.50
2018-09-06T20:04:08.274Z,20.50
2018-09-06T20:06:37.626Z,20.50
2018-09-06T20:09:08.090Z,20.40
2018-09-06T20:11:37.671Z,20.40
2018-09-06T20:14:07.065Z,20.40
2018-09-06T20:16:36.622Z,20.40
2018-09-06T20:19:06.454Z,20.30
2018-09-06T20:21:36.419Z,20.20
2018-09-06T20:24:06.047Z,20.20
2018-09-06T20:26:35.563Z,20.20
2018-09-06T20:29:05.054Z,20.20
2018-09-06T20:31:34.819Z,20.20
2018-09-06T20:34:04.251Z,20.10
2018-09-06T20:36:33.715Z,20.10
2018-09-06T20:39:03.496Z,20.10
2018-09-06T20:41:32.831Z,20.10
2018-09-06T20:44:02.255Z,20.00
2018-09-06T20:46:31.616Z,20.00
2018-09-06T20:49:01.374Z,20.00
2018-09-06T20:51:31.020Z,19.90
2018-09-06T20:54:00.579Z,19.90
2018-09-06T20:56:30.050Z,19.80
2018-09-06T20:58:59.502Z,19.80
2018-09-06T21:01:28.873Z,19.80
2018-09-06T21:03:58.154Z,19.80
2018-09-06T21:06:27.353Z,19.80
2018-09-06T21:08:56.550Z,19.80
2018-09-06T21:11:25.995Z,19.80
2018-09-06T21:13:55.382Z,19.70
2018-09-06T21:16:24.735Z,19.60
2018-09-06T21:18:54.093Z,19.60
2018-09-06T21:21:23.419Z,19.60
2018-09-06T21:23:52.882Z,19.60
2018-09-06T21:26:22.241Z,19.60
2018-09-06T21:28:51.557Z,19.60
2018-09-06T21:31:20.896Z,19.60
2018-09-06T21:33:50.226Z,19.60
2018-09-06T21:36:19.518Z,19.50
2018-09-06T21:38:48.815Z,19.50
2018-09-06T21:41:18.253Z,19.40
2018-09-06T21:43:47.519Z,19.40
2018-09-06T21:46:16.980Z,19.40
2018-09-06T21:48:46.491Z,19.50
2018-09-06T21:51:15.895Z,19.40
2018-09-06T21:53:45.148Z,19.30
2018-09-06T21:56:14.454Z,19.30
2018-09-06T21:58:45.732Z,19.10
2018-09-06T22:01:14.999Z,19.10
2018-09-06T22:03:49.395Z,19.10
2018-09-06T22:06:18.754Z,19.20
2018-09-06T22:08:48.060Z,19.10
2018-09-06T22:11:17.400Z,19.10
2018-09-06T22:13:46.770Z,19.10
2018-09-06T22:16:16.108Z,19.10
2018-09-06T22:18:45.394Z,19.10
2018-09-06T22:21:14.710Z,19.00
2018-09-06T22:23:44.354Z,19.10
2018-09-06T22:26:13.652Z,19.00
2018-09-06T22:28:43.026Z,19.10
2018-09-06T22:31:12.319Z,19.10
2018-09-06T22:33:41.588Z,19.10
2018-09-06T22:36:10.903Z,19.10
2018-09-06T22:38:40.263Z,19.00
2018-09-06T22:41:09.582Z,19.00
2018-09-06T22:43:38.819Z,19.00
2018-09-06T22:46:08.513Z,19.00
2018-09-06T22:48:37.810Z,19.00
2018-09-06T22:51:07.313Z,18.90
2018-09-06T22:53:36.633Z,19.00
2018-09-06T22:56:06.003Z,19.00
2018-09-06T22:58:35.290Z,19.00
2018-09-06T23:01:04.595Z,18.90
2018-09-06T23:03:39.290Z,18.90
2018-09-06T23:06:09.040Z,18.90
2018-09-06T23:08:38.387Z,18.90
2018-09-06T23:11:07.780Z,18.90
2018-09-06T23:13:37.043Z,18.90
2018-09-06T23:16:06.436Z,18.80
2018-09-06T23:18:35.659Z,18.80
2018-09-06T23:21:04.930Z,18.90
2018-09-06T23:23:34.225Z,18.90
2018-09-06T23:26:03.589Z,18.90
2018-09-06T23:28:32.923Z,18.90
2018-09-06T23:31:02.260Z,18.90
2018-09-06T23:33:31.551Z,18.80
2018-09-06T23:36:00.843Z,18.80
2018-09-06T23:38:30.214Z,18.80
2018-09-06T23:40:59.531Z,18.80
2018-09-06T23:43:28.967Z,18.80
2018-09-06T23:45:59.251Z,18.80
2018-09-06T23:48:30.443Z,18.70
2018-09-06T23:50:59.900Z,18.70
2018-09-06T23:53:29.666Z,18.70
2018-09-06T23:55:58.955Z,18.70
2018-09-06T23:58:28.264Z,18.70
